nws-alerts: Checking more than four warning/county codes can delay the loading of your pages. You should use a cron job to get the data.
EllijayWeather Station Historical Data
Daily Summary for March 18, 2019 Units:  English    Metric   Both
Daily Weekly Monthly Yearly Custom
  High: Low: Average:
Temperature: 54.3 °F 29.8 °F 41.4 °F
Dew Point: 30.2 °F 13.3 °F 23.3 °F
Humidity: 90% 21% 55%
Wind Speed: 13.0mph 0.0mph 0.8mph
Wind Gust: 20.0mph - -
Wind- - WSW
Pressure: 30.38 in 30.26 in -
Precipitation: 0.00 in    
Historical Graphs
 
 
Tabular Data for March 18, 2019
Time Temperature Dew Point Pressure Wind Wind Speed Wind Gust Humidity Rainfall Rate (Hourly) solar
00:04 36.1 °F 29.3 °F 30.26 in Calm     76% 0.00 in meteobridge W/m2
00:09 36.0 °F 29.5 °F 30.26 in Calm     77% 0.00 in meteobridge W/m2
00:14 35.8 °F 29.3 °F 30.26 in Calm     77% 0.00 in meteobridge W/m2
00:19 35.6 °F 29.1 °F 30.27 in Calm     77% 0.00 in meteobridge W/m2
00:24 35.4 °F 28.9 °F 30.26 in Calm     77% 0.00 in meteobridge W/m2
00:29 35.2 °F 28.8 °F 30.27 in Calm     77% 0.00 in meteobridge W/m2
00:34 35.1 °F 28.9 °F 30.27 in Calm     78% 0.00 in meteobridge W/m2
00:39 34.9 °F 29.1 °F 30.26 in Calm     79% 0.00 in meteobridge W/m2
00:44 34.7 °F 28.9 °F 30.26 in Calm     79% 0.00 in meteobridge W/m2
00:49 34.5 °F 28.8 °F 30.27 in Calm     79% 0.00 in meteobridge W/m2
00:54 34.5 °F 28.9 °F 30.26 in Calm     80% 0.00 in meteobridge W/m2
00:59 34.3 °F 28.8 °F 30.27 in Calm     80% 0.00 in meteobridge W/m2
01:04 34.3 °F 29.1 °F 30.26 in Calm     81% 0.00 in meteobridge W/m2
01:09 34.2 °F 28.9 °F 30.26 in Calm     81% 0.00 in meteobridge W/m2
01:14 34.0 °F 28.8 °F 30.26 in Calm     81% 0.00 in meteobridge W/m2
01:19 33.8 °F 28.9 °F 30.26 in Calm     82% 0.00 in meteobridge W/m2
01:24 33.6 °F 28.9 °F 30.26 in Calm     83% 0.00 in meteobridge W/m2
01:29 33.4 °F 28.6 °F 30.26 in Calm     82% 0.00 in meteobridge W/m2
01:34 33.3 °F 28.6 °F 30.26 in Calm     83% 0.00 in meteobridge W/m2
01:39 33.1 °F 28.4 °F 30.26 in Calm     83% 0.00 in meteobridge W/m2
01:44 33.1 °F 28.8 °F 30.26 in Calm     84% 0.00 in meteobridge W/m2
01:49 32.7 °F 28.4 °F 30.26 in Calm     84% 0.00 in meteobridge W/m2
01:54 32.5 °F 28.2 °F 30.26 in Calm     84% 0.00 in meteobridge W/m2
01:59 32.5 °F 28.6 °F 30.26 in Calm     85% 0.00 in meteobridge W/m2
02:04 32.4 °F 28.4 °F 30.27 in Calm     85% 0.00 in meteobridge W/m2
02:09 32.2 °F 28.4 °F 30.26 in Calm     86% 0.00 in meteobridge W/m2
02:14 32.2 °F 28.4 °F 30.27 in Calm     86% 0.00 in meteobridge W/m2
02:19 32.0 °F 28.2 °F 30.27 in Calm     86% 0.00 in meteobridge W/m2
02:24 31.8 °F 28.0 °F 30.27 in Calm     86% 0.00 in meteobridge W/m2
02:29 31.8 °F 28.0 °F 30.27 in Calm     86% 0.00 in meteobridge W/m2
02:34 31.6 °F 28.2 °F 30.27 in Calm     87% 0.00 in meteobridge W/m2
02:39 31.5 °F 28.0 °F 30.27 in Calm     87% 0.00 in meteobridge W/m2
02:44 31.3 °F 27.9 °F 30.27 in Calm     87% 0.00 in meteobridge W/m2
02:49 31.3 °F 27.9 °F 30.27 in Calm     87% 0.00 in meteobridge W/m2
02:54 31.1 °F 28.0 °F 30.27 in Calm     88% 0.00 in meteobridge W/m2
02:59 30.9 °F 27.9 °F 30.27 in Calm     88% 0.00 in meteobridge W/m2
03:04 30.9 °F 27.9 °F 30.27 in Calm     88% 0.00 in meteobridge W/m2
03:09 30.9 °F 27.9 °F 30.27 in Calm     88% 0.00 in meteobridge W/m2
03:14 30.7 °F 27.7 °F 30.27 in Calm     88% 0.00 in meteobridge W/m2
03:19 30.6 °F 27.5 °F 30.27 in Calm     88% 0.00 in meteobridge W/m2
03:24 30.6 °F 27.5 °F 30.27 in Calm     88% 0.00 in meteobridge W/m2
03:29 30.4 °F 27.3 °F 30.27 in Calm     88% 0.00 in meteobridge W/m2
03:34 30.4 °F 27.5 °F 30.27 in Calm     89% 0.00 in meteobridge W/m2
03:39 30.2 °F 27.3 °F 30.27 in Calm     89% 0.00 in meteobridge W/m2
03:44 30.0 °F 27.1 °F 30.27 in Calm     89% 0.00 in meteobridge W/m2
03:49 30.0 °F 27.1 °F 30.27 in Calm     89% 0.00 in meteobridge W/m2
03:54 30.0 °F 27.1 °F 30.27 in Calm     89% 0.00 in meteobridge W/m2
03:59 29.8 °F 27.0 °F 30.27 in Calm     89% 0.00 in meteobridge W/m2
04:04 29.8 °F 27.3 °F 30.27 in Calm     90% 0.00 in meteobridge W/m2
04:09 29.8 °F 27.3 °F 30.27 in Calm     90% 0.00 in meteobridge W/m2
04:14 29.8 °F 27.3 °F 30.27 in Calm     90% 0.00 in meteobridge W/m2
04:19 29.8 °F 27.3 °F 30.27 in Calm     90% 0.00 in meteobridge W/m2
04:24 29.8 °F 27.3 °F 30.27 in Calm     90% 0.00 in meteobridge W/m2
04:29 29.8 °F 27.3 °F 30.27 in Calm     90% 0.00 in meteobridge W/m2
04:34 30.0 °F 27.1 °F 30.27 in Calm     89% 0.00 in meteobridge W/m2
04:39 30.0 °F 27.1 °F 30.27 in Calm     89% 0.00 in meteobridge W/m2
04:44 30.0 °F 27.1 °F 30.27 in Calm     89% 0.00 in meteobridge W/m2
04:49 30.0 °F 27.1 °F 30.27 in Calm     89% 0.00 in meteobridge W/m2
04:54 30.0 °F 27.1 °F 30.26 in Calm     89% 0.00 in meteobridge W/m2
04:59 30.2 °F 27.3 °F 30.26 in Calm     89% 0.00 in meteobridge W/m2
05:04 30.2 °F 27.3 °F 30.26 in Calm     89% 0.00 in meteobridge W/m2
05:09 30.4 °F 27.3 °F 30.26 in Calm     88% 0.00 in meteobridge W/m2
05:14 30.4 °F 27.5 °F 30.26 in Calm     89% 0.00 in meteobridge W/m2
05:19 30.6 °F 27.7 °F 30.26 in Calm     89% 0.00 in meteobridge W/m2
05:24 30.4 °F 27.3 °F 30.26 in Calm     88% 0.00 in meteobridge W/m2
05:29 30.6 °F 27.5 °F 30.26 in Calm     88% 0.00 in meteobridge W/m2
05:34 30.4 °F 27.3 °F 30.26 in Calm     88% 0.00 in meteobridge W/m2
05:39 30.4 °F 27.3 °F 30.26 in Calm     88% 0.00 in meteobridge W/m2
05:44 30.4 °F 27.3 °F 30.26 in Calm     88% 0.00 in meteobridge W/m2
05:49 30.4 °F 27.3 °F 30.27 in Calm     88% 0.00 in meteobridge W/m2
05:54 30.4 °F 27.3 °F 30.26 in Calm   1.0 mph 88% 0.00 in meteobridge W/m2
05:59 30.4 °F 27.3 °F 30.26 in Calm     88% 0.00 in meteobridge W/m2
06:04 30.2 °F 27.1 °F 30.26 in Calm     88% 0.00 in meteobridge W/m2
06:09 30.4 °F 27.3 °F 30.27 in Calm     88% 0.00 in meteobridge W/m2
06:14 30.4 °F 27.3 °F 30.27 in Calm     88% 0.00 in meteobridge W/m2
06:19 30.4 °F 27.3 °F 30.27 in Calm     88% 0.00 in meteobridge W/m2
06:24 30.4 °F 27.3 °F 30.27 in Calm     88% 0.00 in meteobridge W/m2
06:29 30.4 °F 27.3 °F 30.27 in Calm     88% 0.00 in meteobridge W/m2
06:33 30.6 °F 27.5 °F 30.27 in Calm     88% 0.00 in meteobridge W/m2
06:39 30.7 °F 27.7 °F 30.27 in Calm     88% 0.00 in meteobridge W/m2
06:44 30.7 °F 27.3 °F 30.27 in Calm     87% 0.00 in meteobridge W/m2
06:49 30.7 °F 27.3 °F 30.27 in Calm     87% 0.00 in meteobridge W/m2
06:54 30.7 °F 27.3 °F 30.27 in Calm     87% 0.00 in meteobridge W/m2
06:59 30.7 °F 27.7 °F 30.28 in Calm     88% 0.00 in meteobridge W/m2
07:04 30.6 °F 27.5 °F 30.28 in Calm     88% 0.00 in meteobridge W/m2
07:09 30.7 °F 27.7 °F 30.28 in Calm     88% 0.00 in meteobridge W/m2
07:14 30.6 °F 27.5 °F 30.28 in Calm     88% 0.00 in meteobridge W/m2
07:18 30.6 °F 27.1 °F 30.28 in Calm     87% 0.00 in meteobridge W/m2
07:24 30.6 °F 27.5 °F 30.28 in Calm     88% 0.00 in meteobridge W/m2
07:29 30.6 °F 27.1 °F 30.28 in Calm     87% 0.00 in meteobridge W/m2
07:34 30.6 °F 27.1 °F 30.28 in Calm     87% 0.00 in meteobridge W/m2
07:39 30.6 °F 27.1 °F 30.29 in Calm     87% 0.00 in meteobridge W/m2
07:44 30.6 °F 27.5 °F 30.29 in Calm     88% 0.00 in meteobridge W/m2
07:49 30.6 °F 27.7 °F 30.29 in Calm     89% 0.00 in meteobridge W/m2
07:54 30.6 °F 27.7 °F 30.29 in Calm     89% 0.00 in meteobridge W/m2
07:59 30.7 °F 27.7 °F 30.29 in Calm     88% 0.00 in meteobridge W/m2
08:04 30.7 °F 27.7 °F 30.30 in Calm     88% 0.00 in meteobridge W/m2
08:09 30.7 °F 27.7 °F 30.30 in Calm     88% 0.00 in meteobridge W/m2
08:14 30.7 °F 27.7 °F 30.30 in Calm     88% 0.00 in meteobridge W/m2
08:19 30.9 °F 27.9 °F 30.30 in Calm     88% 0.00 in meteobridge W/m2
08:24 31.3 °F 28.4 °F 30.30 in Calm     89% 0.00 in meteobridge W/m2
08:29 31.5 °F 28.4 °F 30.30 in Calm     88% 0.00 in meteobridge W/m2
08:34 32.0 °F 28.6 °F 30.30 in Calm     87% 0.00 in meteobridge W/m2
08:39 32.5 °F 29.1 °F 30.30 in Calm     87% 0.00 in meteobridge W/m2
08:44 33.1 °F 29.3 °F 30.30 in Calm     86% 0.00 in meteobridge W/m2
08:49 34.3 °F 29.7 °F 30.30 in Calm   1.0 mph 83% 0.00 in meteobridge W/m2
08:54 35.4 °F 30.2 °F 30.31 in Calm   1.0 mph 81% 0.00 in meteobridge W/m2
08:59 36.3 °F 29.5 °F 30.31 in Calm   1.0 mph 76% 0.00 in meteobridge W/m2
09:04 37.2 °F 29.7 °F 30.31 in ENE 6.9 mph 7.0 mph 74% 0.00 in meteobridge W/m2
09:09 38.1 °F 29.8 °F 30.32 in Calm   1.0 mph 72% 0.00 in meteobridge W/m2
09:14 38.8 °F 29.8 °F 30.32 in North 2.0 mph 2.0 mph 70% 0.00 in meteobridge W/m2
09:19 39.6 °F 29.8 °F 30.33 in Calm   5.0 mph 68% 0.00 in meteobridge W/m2
09:24 40.1 °F 29.7 °F 30.33 in Calm   4.0 mph 66% 0.00 in meteobridge W/m2
09:29 40.5 °F 30.0 °F 30.33 in Calm     66% 0.00 in meteobridge W/m2
09:34 40.8 °F 29.7 °F 30.33 in North 0.9 mph 3.0 mph 64% 0.00 in meteobridge W/m2
09:39 41.2 °F 30.0 °F 30.34 in Calm   2.0 mph 64% 0.00 in meteobridge W/m2
09:44 41.4 °F 29.7 °F 30.34 in Calm   6.0 mph 63% 0.00 in meteobridge W/m2
09:49 41.5 °F 29.5 °F 30.34 in Calm   4.0 mph 62% 0.00 in meteobridge W/m2
09:54 41.7 °F 29.7 °F 30.34 in North 2.9 mph 5.0 mph 62% 0.00 in meteobridge W/m2
09:59 42.1 °F 30.0 °F 30.34 in Calm   5.0 mph 62% 0.00 in meteobridge W/m2
10:04 42.3 °F 29.8 °F 30.34 in NE 0.9 mph 2.0 mph 61% 0.00 in meteobridge W/m2
10:09 42.6 °F 30.2 °F 30.34 in Calm   4.0 mph 61% 0.00 in meteobridge W/m2
10:14 43.2 °F 30.2 °F 30.34 in Calm   3.0 mph 60% 0.00 in meteobridge W/m2
10:19 43.3 °F 30.0 °F 30.34 in West 2.9 mph 12.0 mph 59% 0.00 in meteobridge W/m2
10:24 43.5 °F 29.7 °F 30.34 in Calm   2.0 mph 58% 0.00 in meteobridge W/m2
10:29 44.1 °F 29.8 °F 30.34 in Calm   11.0 mph 57% 0.00 in meteobridge W/m2
10:34 44.2 °F 29.5 °F 30.34 in Calm   4.0 mph 56% 0.00 in meteobridge W/m2
10:39 45.0 °F 28.9 °F 30.34 in West 2.0 mph 7.0 mph 53% 0.00 in meteobridge W/m2
10:44 45.1 °F 28.0 °F 30.34 in ENE 2.9 mph 8.0 mph 51% 0.00 in meteobridge W/m2
10:49 45.7 °F 28.6 °F 30.34 in Calm   7.0 mph 51% 0.00 in meteobridge W/m2
10:54 46.2 °F 29.1 °F 30.34 in NNE 0.9 mph 1.0 mph 51% 0.00 in meteobridge W/m2
10:59 46.8 °F 28.6 °F 30.34 in Calm   5.0 mph 49% 0.00 in meteobridge W/m2
11:04 46.9 °F 28.8 °F 30.35 in Calm   7.0 mph 49% 0.00 in meteobridge W/m2
11:09 47.1 °F 28.4 °F 30.34 in NNW 0.9 mph 5.0 mph 48% 0.00 in meteobridge W/m2
11:14 47.8 °F 29.7 °F 30.34 in Calm   2.0 mph 49% 0.00 in meteobridge W/m2
11:19 48.2 °F 27.9 °F 30.35 in Calm   6.0 mph 45% 0.00 in meteobridge W/m2
11:24 48.6 °F 25.9 °F 30.36 in Calm   8.0 mph 41% 0.00 in meteobridge W/m2
11:29 48.7 °F 26.1 °F 30.36 in WNW 6.0 mph 10.0 mph 41% 0.00 in meteobridge W/m2
11:34 48.9 °F 26.8 °F 30.36 in WNW 0.9 mph 5.0 mph 42% 0.00 in meteobridge W/m2
11:39 49.5 °F 25.5 °F 30.36 in NW 2.0 mph 6.0 mph 39% 0.00 in meteobridge W/m2
11:44 49.6 °F 25.7 °F 30.36 in West 0.9 mph 1.0 mph 39% 0.00 in meteobridge W/m2
11:49 50.2 °F 27.3 °F 30.36 in Calm     41% 0.00 in meteobridge W/m2
11:54 50.2 °F 26.2 °F 30.35 in NW 2.9 mph 4.0 mph 39% 0.00 in meteobridge W/m2
11:59 50.2 °F 25.5 °F 30.35 in WNW 0.9 mph 2.0 mph 38% 0.00 in meteobridge W/m2
12:04 50.5 °F 25.2 °F 30.34 in Calm   2.0 mph 37% 0.00 in meteobridge W/m2
12:09 51.1 °F 24.4 °F 30.34 in Calm   8.0 mph 35% 0.00 in meteobridge W/m2
12:14 51.1 °F 23.7 °F 30.34 in Calm   3.0 mph 34% 0.00 in meteobridge W/m2
12:19 51.3 °F 23.9 °F 30.34 in WNW 0.9 mph 4.0 mph 34% 0.00 in meteobridge W/m2
12:24 51.3 °F 23.9 °F 30.34 in South 0.9 mph 4.0 mph 34% 0.00 in meteobridge W/m2
12:29 51.4 °F 22.6 °F 30.34 in West 4.9 mph 8.0 mph 32% 0.00 in meteobridge W/m2
12:34 51.6 °F 22.6 °F 30.34 in NNW 0.9 mph 3.0 mph 32% 0.00 in meteobridge W/m2
12:39 52.2 °F 23.2 °F 30.34 in Calm     32% 0.00 in meteobridge W/m2
12:44 52.3 °F 23.4 °F 30.33 in West 2.0 mph 3.0 mph 32% 0.00 in meteobridge W/m2
12:49 52.2 °F 23.2 °F 30.33 in Calm   5.0 mph 32% 0.00 in meteobridge W/m2
12:54 52.3 °F 24.1 °F 30.34 in Calm   6.0 mph 33% 0.00 in meteobridge W/m2
12:59 52.5 °F 24.3 °F 30.33 in Calm   3.0 mph 33% 0.00 in meteobridge W/m2
13:04 52.3 °F 23.4 °F 30.34 in Calm   4.0 mph 32% 0.00 in meteobridge W/m2
13:09 52.3 °F 24.8 °F 30.33 in Calm   1.0 mph 34% 0.00 in meteobridge W/m2
13:14 52.7 °F 23.7 °F 30.33 in North 2.9 mph 7.0 mph 32% 0.00 in meteobridge W/m2
13:19 53.1 °F 25.3 °F 30.32 in Calm   7.0 mph 34% 0.00 in meteobridge W/m2
13:24 53.4 °F 23.5 °F 30.32 in Calm   3.0 mph 31% 0.00 in meteobridge W/m2
13:29 53.2 °F 22.6 °F 30.32 in WNW 2.9 mph 6.0 mph 30% 0.00 in meteobridge W/m2
13:34 53.2 °F 23.4 °F 30.32 in WNW 4.9 mph 6.0 mph 31% 0.00 in meteobridge W/m2
13:39 53.4 °F 24.3 °F 30.32 in WNW 2.0 mph 3.0 mph 32% 0.00 in meteobridge W/m2
13:44 53.8 °F 25.3 °F 30.32 in WNW 2.9 mph 6.0 mph 33% 0.00 in meteobridge W/m2
13:49 53.6 °F 25.2 °F 30.32 in NE 2.9 mph 9.0 mph 33% 0.00 in meteobridge W/m2
13:54 53.6 °F 25.9 °F 30.31 in NNW 2.0 mph 7.0 mph 34% 0.00 in meteobridge W/m2
13:59 53.8 °F 26.1 °F 30.31 in NW 2.9 mph 4.0 mph 34% 0.00 in meteobridge W/m2
14:04 54.1 °F 25.7 °F 30.31 in NNW 4.0 mph 7.0 mph 33% 0.00 in meteobridge W/m2
14:09 54.3 °F 25.2 °F 30.31 in Calm   5.0 mph 32% 0.00 in meteobridge W/m2
14:14 54.0 °F 23.2 °F 30.31 in Calm   6.0 mph 30% 0.00 in meteobridge W/m2
14:19 54.0 °F 22.5 °F 30.31 in NNE 2.0 mph 9.0 mph 29% 0.00 in meteobridge W/m2
14:24 53.8 °F 21.4 °F 30.32 in Calm   5.0 mph 28% 0.00 in meteobridge W/m2
14:29 53.8 °F 22.3 °F 30.32 in NNW 2.9 mph 9.0 mph 29% 0.00 in meteobridge W/m2
14:34 53.4 °F 21.2 °F 30.32 in WSW 0.9 mph 7.0 mph 28% 0.00 in meteobridge W/m2
14:39 53.6 °F 20.5 °F 30.31 in Calm   20.0 mph 27% 0.00 in meteobridge W/m2
14:44 53.2 °F 18.3 °F 30.31 in North 2.9 mph 10.0 mph 25% 0.00 in meteobridge W/m2
14:49 53.1 °F 18.1 °F 30.30 in WNW 0.9 mph 15.0 mph 25% 0.00 in meteobridge W/m2
14:54 52.7 °F 18.7 °F 30.30 in East 8.1 mph 10.0 mph 26% 0.00 in meteobridge W/m2
14:59 52.5 °F 19.4 °F 30.30 in West 0.9 mph 12.0 mph 27% 0.00 in meteobridge W/m2
15:04 52.9 °F 19.8 °F 30.29 in Calm   8.0 mph 27% 0.00 in meteobridge W/m2
15:09 53.1 °F 19.0 °F 30.30 in North 6.0 mph 7.0 mph 26% 0.00 in meteobridge W/m2
15:14 53.2 °F 20.1 °F 30.29 in NW 4.0 mph 10.0 mph 27% 0.00 in meteobridge W/m2
15:19 53.2 °F 18.3 °F 30.30 in NW 2.0 mph 2.0 mph 25% 0.00 in meteobridge W/m2
15:24 53.4 °F 19.4 °F 30.29 in Calm   7.0 mph 26% 0.00 in meteobridge W/m2
15:29 53.4 °F 18.5 °F 30.29 in WNW 2.0 mph 9.0 mph 25% 0.00 in meteobridge W/m2
15:34 53.2 °F 18.3 °F 30.29 in North 0.9 mph 3.0 mph 25% 0.00 in meteobridge W/m2
15:39 53.2 °F 18.3 °F 30.29 in NNW 6.9 mph 10.0 mph 25% 0.00 in meteobridge W/m2
15:44 53.2 °F 19.2 °F 30.29 in WNW 6.9 mph 7.0 mph 26% 0.00 in meteobridge W/m2
15:49 53.2 °F 18.3 °F 30.29 in NW 4.0 mph 4.0 mph 25% 0.00 in meteobridge W/m2
15:54 53.4 °F 17.6 °F 30.29 in North 0.9 mph 8.0 mph 24% 0.00 in meteobridge W/m2
15:59 53.1 °F 17.2 °F 30.30 in NE 8.9 mph 9.0 mph 24% 0.00 in meteobridge W/m2
16:04 52.9 °F 17.1 °F 30.30 in WNW 2.9 mph 10.0 mph 24% 0.00 in meteobridge W/m2
16:09 52.9 °F 17.1 °F 30.30 in Calm   8.0 mph 24% 0.00 in meteobridge W/m2
16:14 52.9 °F 16.2 °F 30.30 in Calm   6.0 mph 23% 0.00 in meteobridge W/m2
16:19 52.9 °F 15.1 °F 30.30 in Calm   11.0 mph 22% 0.00 in meteobridge W/m2
16:24 52.9 °F 16.2 °F 30.29 in NNW 2.9 mph 8.0 mph 23% 0.00 in meteobridge W/m2
16:29 52.7 °F 14.9 °F 30.29 in NW 2.0 mph 6.0 mph 22% 0.00 in meteobridge W/m2
16:34 52.5 °F 16.7 °F 30.29 in Calm   3.0 mph 24% 0.00 in meteobridge W/m2
16:39 52.3 °F 14.5 °F 30.29 in WNW 4.9 mph 13.0 mph 22% 0.00 in meteobridge W/m2
16:44 52.2 °F 16.5 °F 30.29 in WNW 2.0 mph 10.0 mph 24% 0.00 in meteobridge W/m2
16:49 52.2 °F 13.5 °F 30.29 in Calm   8.0 mph 21% 0.00 in meteobridge W/m2
16:54 52.0 °F 13.3 °F 30.29 in WNW 6.9 mph 13.0 mph 21% 0.00 in meteobridge W/m2
16:59 52.0 °F 15.3 °F 30.29 in West 4.0 mph 9.0 mph 23% 0.00 in meteobridge W/m2
17:04 52.0 °F 14.4 °F 30.28 in WNW 8.9 mph 9.0 mph 22% 0.00 in meteobridge W/m2
17:09 52.0 °F 16.3 °F 30.28 in ENE 13.0 mph 13.0 mph 24% 0.00 in meteobridge W/m2
17:14 52.0 °F 15.3 °F 30.28 in West 4.0 mph 8.0 mph 23% 0.00 in meteobridge W/m2
17:19 51.6 °F 15.1 °F 30.28 in Calm   4.0 mph 23% 0.00 in meteobridge W/m2
17:24 51.8 °F 15.1 °F 30.29 in NNW 8.1 mph 8.0 mph 23% 0.00 in meteobridge W/m2
17:29 51.8 °F 14.2 °F 30.29 in Calm   7.0 mph 22% 0.00 in meteobridge W/m2
17:34 51.6 °F 15.1 °F 30.29 in NNE 0.9 mph 4.0 mph 23% 0.00 in meteobridge W/m2
17:39 51.8 °F 15.1 °F 30.29 in North 6.0 mph 14.0 mph 23% 0.00 in meteobridge W/m2
17:44 51.6 °F 15.1 °F 30.29 in NNE 2.0 mph 5.0 mph 23% 0.00 in meteobridge W/m2
17:49 51.3 °F 13.6 °F 30.30 in WNW 6.9 mph 9.0 mph 22% 0.00 in meteobridge W/m2
17:54 51.3 °F 13.6 °F 30.29 in Calm   8.0 mph 22% 0.00 in meteobridge W/m2
17:59 51.1 °F 13.5 °F 30.30 in NW 2.0 mph 5.0 mph 22% 0.00 in meteobridge W/m2
18:04 50.9 °F 14.4 °F 30.30 in Calm   5.0 mph 23% 0.00 in meteobridge W/m2
18:09 50.7 °F 14.2 °F 30.30 in Calm   4.0 mph 23% 0.00 in meteobridge W/m2
18:14 50.5 °F 15.1 °F 30.30 in NNE 0.9 mph 12.0 mph 24% 0.00 in meteobridge W/m2
18:19 50.4 °F 14.9 °F 30.30 in WNW 6.0 mph 6.0 mph 24% 0.00 in meteobridge W/m2
18:24 50.2 °F 15.6 °F 30.30 in North 4.0 mph 4.0 mph 25% 0.00 in meteobridge W/m2
18:29 50.0 °F 14.5 °F 30.31 in WNW 0.9 mph 5.0 mph 24% 0.00 in meteobridge W/m2
18:34 50.0 °F 16.5 °F 30.31 in Calm   1.0 mph 26% 0.00 in meteobridge W/m2
18:39 50.0 °F 16.5 °F 30.32 in Calm   4.0 mph 26% 0.00 in meteobridge W/m2
18:44 49.8 °F 16.3 °F 30.32 in Calm   4.0 mph 26% 0.00 in meteobridge W/m2
18:49 49.6 °F 16.2 °F 30.32 in Calm   5.0 mph 26% 0.00 in meteobridge W/m2
18:54 49.5 °F 15.1 °F 30.32 in WNW 2.9 mph 5.0 mph 25% 0.00 in meteobridge W/m2
18:59 49.1 °F 14.7 °F 30.33 in Calm   8.0 mph 25% 0.00 in meteobridge W/m2
19:04 48.9 °F 15.4 °F 30.33 in Calm   1.0 mph 26% 0.00 in meteobridge W/m2
19:09 48.6 °F 16.2 °F 30.33 in NW 2.0 mph 6.0 mph 27% 0.00 in meteobridge W/m2
19:14 48.4 °F 16.0 °F 30.33 in WNW 6.0 mph 6.0 mph 27% 0.00 in meteobridge W/m2
19:19 48.2 °F 14.0 °F 30.33 in NE 2.9 mph 5.0 mph 25% 0.00 in meteobridge W/m2
19:24 48.0 °F 15.6 °F 30.34 in NW 0.9 mph 2.0 mph 27% 0.00 in meteobridge W/m2
19:29 47.8 °F 15.4 °F 30.34 in North 0.9 mph 7.0 mph 27% 0.00 in meteobridge W/m2
19:34 47.7 °F 16.2 °F 30.34 in NNW 0.9 mph 1.0 mph 28% 0.00 in meteobridge W/m2
19:39 47.5 °F 15.1 °F 30.34 in Calm   8.0 mph 27% 0.00 in meteobridge W/m2
19:44 47.1 °F 14.0 °F 30.34 in Calm   1.0 mph 26% 0.00 in meteobridge W/m2
19:49 46.9 °F 13.8 °F 30.35 in Calm   1.0 mph 26% 0.00 in meteobridge W/m2
19:54 46.8 °F 14.5 °F 30.34 in Calm   2.0 mph 27% 0.00 in meteobridge W/m2
19:59 46.6 °F 16.0 °F 30.35 in NNW 0.9 mph 1.0 mph 29% 0.00 in meteobridge W/m2
20:04 46.2 °F 14.0 °F 30.35 in Calm   6.0 mph 27% 0.00 in meteobridge W/m2
20:09 46.0 °F 14.0 °F 30.35 in Calm   4.0 mph 27% 0.00 in meteobridge W/m2
20:14 45.9 °F 14.5 °F 30.35 in Calm     28% 0.00 in meteobridge W/m2
20:19 45.9 °F 13.8 °F 30.36 in Calm   4.0 mph 27% 0.00 in meteobridge W/m2
20:24 45.5 °F 14.4 °F 30.36 in Calm     28% 0.00 in meteobridge W/m2
20:29 45.3 °F 15.6 °F 30.36 in Calm     30% 0.00 in meteobridge W/m2
20:34 45.1 °F 14.7 °F 30.37 in Calm     29% 0.00 in meteobridge W/m2
20:39 45.0 °F 16.9 °F 30.36 in Calm     32% 0.00 in meteobridge W/m2
20:44 44.4 °F 15.6 °F 30.36 in Calm     31% 0.00 in meteobridge W/m2
20:49 44.1 °F 16.2 °F 30.36 in Calm     32% 0.00 in meteobridge W/m2
20:54 43.7 °F 17.2 °F 30.36 in Calm     34% 0.00 in meteobridge W/m2
20:59 43.2 °F 18.0 °F 30.36 in Calm     36% 0.00 in meteobridge W/m2
21:04 42.8 °F 17.1 °F 30.36 in Calm     35% 0.00 in meteobridge W/m2
21:09 42.4 °F 17.4 °F 30.37 in Calm     36% 0.00 in meteobridge W/m2
21:14 41.7 °F 19.2 °F 30.36 in Calm     40% 0.00 in meteobridge W/m2
21:19 41.4 °F 18.9 °F 30.37 in Calm     40% 0.00 in meteobridge W/m2
21:24 40.8 °F 19.6 °F 30.37 in Calm     42% 0.00 in meteobridge W/m2
21:29 40.5 °F 18.7 °F 30.37 in Calm     41% 0.00 in meteobridge W/m2
21:34 40.3 °F 17.2 °F 30.37 in Calm     39% 0.00 in meteobridge W/m2
21:39 39.7 °F 20.7 °F 30.37 in Calm     46% 0.00 in meteobridge W/m2
21:44 39.4 °F 18.7 °F 30.37 in Calm     43% 0.00 in meteobridge W/m2
21:49 39.0 °F 18.9 °F 30.37 in Calm     44% 0.00 in meteobridge W/m2
21:54 38.8 °F 19.4 °F 30.37 in Calm     45% 0.00 in meteobridge W/m2
21:59 38.7 °F 18.1 °F 30.37 in Calm   1.0 mph 43% 0.00 in meteobridge W/m2
22:04 38.5 °F 19.6 °F 30.37 in Calm     46% 0.00 in meteobridge W/m2
22:09 38.5 °F 19.6 °F 30.38 in Calm   1.0 mph 46% 0.00 in meteobridge W/m2
22:14 38.5 °F 19.0 °F 30.37 in Calm   1.0 mph 45% 0.00 in meteobridge W/m2
22:19 38.5 °F 18.0 °F 30.37 in Calm   1.0 mph 43% 0.00 in meteobridge W/m2
22:24 38.7 °F 18.1 °F 30.37 in Calm   2.0 mph 43% 0.00 in meteobridge W/m2
22:29 38.8 °F 19.8 °F 30.37 in Calm     46% 0.00 in meteobridge W/m2
22:34 38.8 °F 20.3 °F 30.37 in Calm   1.0 mph 47% 0.00 in meteobridge W/m2
22:39 38.8 °F 20.8 °F 30.37 in Calm     48% 0.00 in meteobridge W/m2
22:44 38.8 °F 18.9 °F 30.37 in Calm     44% 0.00 in meteobridge W/m2
22:49 39.2 °F 19.6 °F 30.37 in Calm     45% 0.00 in meteobridge W/m2
22:54 39.2 °F 21.2 °F 30.37 in Calm     48% 0.00 in meteobridge W/m2
22:59 39.0 °F 19.4 °F 30.37 in Calm     45% 0.00 in meteobridge W/m2
23:04 39.0 °F 19.9 °F 30.38 in Calm     46% 0.00 in meteobridge W/m2
23:09 39.0 °F 18.9 °F 30.38 in Calm     44% 0.00 in meteobridge W/m2
23:14 39.0 °F 19.4 °F 30.38 in Calm     45% 0.00 in meteobridge W/m2
23:19 38.8 °F 18.3 °F 30.38 in Calm     43% 0.00 in meteobridge W/m2
23:24 38.8 °F 18.9 °F 30.38 in Calm     44% 0.00 in meteobridge W/m2
23:29 38.7 °F 18.1 °F 30.38 in Calm     43% 0.00 in meteobridge W/m2
23:34 38.8 °F 19.8 °F 30.38 in Calm     46% 0.00 in meteobridge W/m2
23:39 38.7 °F 19.6 °F 30.38 in Calm     46% 0.00 in meteobridge W/m2
23:44 38.5 °F 18.5 °F 30.38 in Calm     44% 0.00 in meteobridge W/m2
23:49 38.5 °F 19.0 °F 30.38 in Calm     45% 0.00 in meteobridge W/m2
23:54 38.3 °F 19.4 °F 30.38 in Calm     46% 0.00 in meteobridge W/m2
23:59 38.1 °F 19.6 °F 30.38 in Calm     47% 0.00 in meteobridge W/m2
EllijayWeather
Compliments of Weather Underground - 2.5 mb